sensor_id;sensor_type;location;lat;lon;timestamp;temperature;humidity
16532;DHT22;8378;57.698;11.958;2022-08-06T00:00:53;22.90;99.90
16532;DHT22;8378;57.698;11.958;2022-08-06T00:03:19;23.00;99.90
16532;DHT22;8378;57.698;11.958;2022-08-06T00:05:45;22.90;99.90
16532;DHT22;8378;57.698;11.958;2022-08-06T00:08:10;22.90;99.90
16532;DHT22;8378;57.698;11.958;2022-08-06T00:10:36;22.90;99.90
16532;DHT22;8378;57.698;11.958;2022-08-06T00:13:02;22.90;99.90
16532;DHT22;8378;57.698;11.958;2022-08-06T00:15:28;22.90;99.90
16532;DHT22;8378;57.698;11.958;2022-08-06T00:17:54;22.90;99.90
16532;DHT22;8378;57.698;11.958;2022-08-06T00:20:20;22.80;99.90
16532;DHT22;8378;57.698;11.958;2022-08-06T00:22:45;22.80;99.90
16532;DHT22;8378;57.698;11.958;2022-08-06T00:25:11;22.80;99.90
16532;DHT22;8378;57.698;11.958;2022-08-06T00:27:37;22.80;99.90
16532;DHT22;8378;57.698;11.958;2022-08-06T00:30:05;22.80;99.90
16532;DHT22;8378;57.698;11.958;2022-08-06T00:32:31;22.80;99.90
16532;DHT22;8378;57.698;11.958;2022-08-06T00:34:57;22.80;99.90
16532;DHT22;8378;57.698;11.958;2022-08-06T00:37:22;22.80;99.90
16532;DHT22;8378;57.698;11.958;2022-08-06T00:39:48;22.70;99.90
16532;DHT22;8378;57.698;11.958;2022-08-06T00:42:14;22.70;99.90
16532;DHT22;8378;57.698;11.958;2022-08-06T00:44:40;22.70;99.90
16532;DHT22;8378;57.698;11.958;2022-08-06T00:47:05;22.70;99.90
16532;DHT22;8378;57.698;11.958;2022-08-06T00:49:31;22.70;99.90
16532;DHT22;8378;57.698;11.958;2022-08-06T00:51:57;22.70;99.90
16532;DHT22;8378;57.698;11.958;2022-08-06T00:54:23;22.70;99.90
16532;DHT22;8378;57.698;11.958;2022-08-06T00:56:48;22.70;99.90
16532;DHT22;8378;57.698;11.958;2022-08-06T00:59:14;22.70;99.90
16532;DHT22;8378;57.698;11.958;2022-08-06T01:01:40;22.60;99.90
16532;DHT22;8378;57.698;11.958;2022-08-06T01:04:06;22.60;99.90
16532;DHT22;8378;57.698;11.958;2022-08-06T01:06:31;22.60;99.90
16532;DHT22;8378;57.698;11.958;2022-08-06T01:08:57;22.60;99.90
16532;DHT22;8378;57.698;11.958;2022-08-06T01:11:23;22.60;99.90
16532;DHT22;8378;57.698;11.958;2022-08-06T01:13:48;22.60;99.90
16532;DHT22;8378;57.698;11.958;2022-08-06T01:16:41;22.60;99.90
16532;DHT22;8378;57.698;11.958;2022-08-06T01:25:09;22.50;99.90
16532;DHT22;8378;57.698;11.958;2022-08-06T01:28:15;22.50;99.90
16532;DHT22;8378;57.698;11.958;2022-08-06T01:30:37;22.50;99.90
16532;DHT22;8378;57.698;11.958;2022-08-06T01:33:09;22.40;99.90
16532;DHT22;8378;57.698;11.958;2022-08-06T01:35:38;22.40;99.90
16532;DHT22;8378;57.698;11.958;2022-08-06T01:38:15;22.40;99.90
16532;DHT22;8378;57.698;11.958;2022-08-06T01:40:44;22.40;99.90
16532;DHT22;8378;57.698;11.958;2022-08-06T01:43:14;22.30;99.90
16532;DHT22;8378;57.698;11.958;2022-08-06T01:45:41;22.30;99.90
16532;DHT22;8378;57.698;11.958;2022-08-06T01:48:12;22.30;99.90
16532;DHT22;8378;57.698;11.958;2022-08-06T01:50:42;22.30;99.90
16532;DHT22;8378;57.698;11.958;2022-08-06T01:53:13;22.30;99.90
16532;DHT22;8378;57.698;11.958;2022-08-06T01:55:45;22.30;99.90
16532;DHT22;8378;57.698;11.958;2022-08-06T01:58:12;22.30;99.90
16532;DHT22;8378;57.698;11.958;2022-08-06T02:00:42;22.30;99.90
16532;DHT22;8378;57.698;11.958;2022-08-06T02:03:14;22.20;99.90
16532;DHT22;8378;57.698;11.958;2022-08-06T02:05:42;22.20;99.90
16532;DHT22;8378;57.698;11.958;2022-08-06T02:08:12;22.20;99.90
16532;DHT22;8378;57.698;11.958;2022-08-06T02:10:39;22.20;99.90
16532;DHT22;8378;57.698;11.958;2022-08-06T02:13:06;22.20;99.90
16532;DHT22;8378;57.698;11.958;2022-08-06T02:15:35;22.10;99.90
16532;DHT22;8378;57.698;11.958;2022-08-06T02:18:04;22.10;99.90
16532;DHT22;8378;57.698;11.958;2022-08-06T02:20:37;22.10;99.90
16532;DHT22;8378;57.698;11.958;2022-08-06T02:23:06;22.10;99.90
16532;DHT22;8378;57.698;11.958;2022-08-06T02:25:33;22.10;99.90
16532;DHT22;8378;57.698;11.958;2022-08-06T02:28:00;22.10;99.90
16532;DHT22;8378;57.698;11.958;2022-08-06T02:30:32;22.00;99.90
16532;DHT22;8378;57.698;11.958;2022-08-06T02:32:58;22.10;99.90
16532;DHT22;8378;57.698;11.958;2022-08-06T02:35:25;22.10;99.90
16532;DHT22;8378;57.698;11.958;2022-08-06T02:38:09;22.00;99.90
16532;DHT22;8378;57.698;11.958;2022-08-06T02:40:42;22.00;99.90
16532;DHT22;8378;57.698;11.958;2022-08-06T02:43:15;22.00;99.90
16532;DHT22;8378;57.698;11.958;2022-08-06T02:45:57;22.00;99.90
16532;DHT22;8378;57.698;11.958;2022-08-06T02:48:36;22.00;99.90
16532;DHT22;8378;57.698;11.958;2022-08-06T02:51:08;22.00;99.90
16532;DHT22;8378;57.698;11.958;2022-08-06T02:53:42;21.90;99.90
16532;DHT22;8378;57.698;11.958;2022-08-06T02:56:11;21.90;99.90
16532;DHT22;8378;57.698;11.958;2022-08-06T02:58:44;21.90;99.90
16532;DHT22;8378;57.698;11.958;2022-08-06T03:01:14;21.90;99.90
16532;DHT22;8378;57.698;11.958;2022-08-06T03:03:42;21.90;99.90
16532;DHT22;8378;57.698;11.958;2022-08-06T03:06:12;21.90;99.90
16532;DHT22;8378;57.698;11.958;2022-08-06T03:08:40;21.90;99.90
16532;DHT22;8378;57.698;11.958;2022-08-06T03:11:07;21.90;99.90
16532;DHT22;8378;57.698;11.958;2022-08-06T03:13:37;21.90;99.90
16532;DHT22;8378;57.698;11.958;2022-08-06T03:16:04;21.90;99.90
16532;DHT22;8378;57.698;11.958;2022-08-06T03:18:32;21.90;99.90
16532;DHT22;8378;57.698;11.958;2022-08-06T03:21:00;21.90;99.90
16532;DHT22;8378;57.698;11.958;2022-08-06T03:23:29;21.90;99.90
16532;DHT22;8378;57.698;11.958;2022-08-06T03:25:55;21.90;99.90
16532;DHT22;8378;57.698;11.958;2022-08-06T03:28:22;21.90;99.90
16532;DHT22;8378;57.698;11.958;2022-08-06T03:30:50;21.90;99.90
16532;DHT22;8378;57.698;11.958;2022-08-06T03:33:16;21.90;99.90
16532;DHT22;8378;57.698;11.958;2022-08-06T03:35:43;21.80;99.90
16532;DHT22;8378;57.698;11.958;2022-08-06T03:38:11;21.90;99.90
16532;DHT22;8378;57.698;11.958;2022-08-06T03:40:38;21.90;99.90
16532;DHT22;8378;57.698;11.958;2022-08-06T03:43:05;21.80;99.90
16532;DHT22;8378;57.698;11.958;2022-08-06T03:45:34;21.80;99.90
16532;DHT22;8378;57.698;11.958;2022-08-06T03:48:01;21.90;99.90
16532;DHT22;8378;57.698;11.958;2022-08-06T03:50:40;21.90;99.90
16532;DHT22;8378;57.698;11.958;2022-08-06T03:53:13;21.80;99.90
16532;DHT22;8378;57.698;11.958;2022-08-06T03:55:41;21.80;99.90
16532;DHT22;8378;57.698;11.958;2022-08-06T03:58:10;21.80;99.90
16532;DHT22;8378;57.698;11.958;2022-08-06T04:00:44;21.80;99.90
16532;DHT22;8378;57.698;11.958;2022-08-06T04:03:12;21.80;99.90
16532;DHT22;8378;57.698;11.958;2022-08-06T04:05:40;21.80;99.90
16532;DHT22;8378;57.698;11.958;2022-08-06T04:08:07;21.80;99.90
16532;DHT22;8378;57.698;11.958;2022-08-06T04:10:39;21.70;99.90
16532;DHT22;8378;57.698;11.958;2022-08-06T04:13:09;21.80;99.90
16532;DHT22;8378;57.698;11.958;2022-08-06T04:15:39;21.70;99.90
16532;DHT22;8378;57.698;11.958;2022-08-06T04:18:08;21.70;99.90
16532;DHT22;8378;57.698;11.958;2022-08-06T04:20:34;21.70;99.90
16532;DHT22;8378;57.698;11.958;2022-08-06T04:23:00;21.80;99.90
16532;DHT22;8378;57.698;11.958;2022-08-06T04:25:30;21.70;99.90
16532;DHT22;8378;57.698;11.958;2022-08-06T04:27:57;21.70;99.90
16532;DHT22;8378;57.698;11.958;2022-08-06T04:30:25;21.70;99.90
16532;DHT22;8378;57.698;11.958;2022-08-06T04:32:54;21.70;99.90
16532;DHT22;8378;57.698;11.958;2022-08-06T04:35:21;21.70;99.90
16532;DHT22;8378;57.698;11.958;2022-08-06T04:37:47;21.70;99.90
16532;DHT22;8378;57.698;11.958;2022-08-06T04:40:14;21.70;99.90
16532;DHT22;8378;57.698;11.958;2022-08-06T04:42:40;21.70;99.90
16532;DHT22;8378;57.698;11.958;2022-08-06T04:45:09;21.70;99.90
16532;DHT22;8378;57.698;11.958;2022-08-06T04:47:36;21.70;99.90
16532;DHT22;8378;57.698;11.958;2022-08-06T04:50:02;21.70;99.90
16532;DHT22;8378;57.698;11.958;2022-08-06T04:52:28;21.70;99.90
16532;DHT22;8378;57.698;11.958;2022-08-06T04:54:54;21.70;99.90
16532;DHT22;8378;57.698;11.958;2022-08-06T04:57:20;21.70;99.90
16532;DHT22;8378;57.698;11.958;2022-08-06T04:59:46;21.70;99.90
16532;DHT22;8378;57.698;11.958;2022-08-06T05:02:11;21.70;99.90
16532;DHT22;8378;57.698;11.958;2022-08-06T05:04:37;21.70;99.90
16532;DHT22;8378;57.698;11.958;2022-08-06T05:07:16;21.70;99.90
16532;DHT22;8378;57.698;11.958;2022-08-06T05:09:42;21.70;99.90
16532;DHT22;8378;57.698;11.958;2022-08-06T05:17:42;21.70;99.90
16532;DHT22;8378;57.698;11.958;2022-08-06T05:20:19;21.70;99.90
16532;DHT22;8378;57.698;11.958;2022-08-06T05:22:47;21.70;99.90
16532;DHT22;8378;57.698;11.958;2022-08-06T05:25:13;21.70;99.90
16532;DHT22;8378;57.698;11.958;2022-08-06T05:27:40;21.70;99.90
16532;DHT22;8378;57.698;11.958;2022-08-06T05:30:07;21.70;99.90
16532;DHT22;8378;57.698;11.958;2022-08-06T05:32:46;21.70;99.90
16532;DHT22;8378;57.698;11.958;2022-08-06T05:35:13;21.80;99.90
16532;DHT22;8378;57.698;11.958;2022-08-06T05:37:39;21.80;99.90
16532;DHT22;8378;57.698;11.958;2022-08-06T05:40:06;21.80;99.90
16532;DHT22;8378;57.698;11.958;2022-08-06T05:42:31;21.80;99.90
16532;DHT22;8378;57.698;11.958;2022-08-06T05:44:57;21.80;99.90
16532;DHT22;8378;57.698;11.958;2022-08-06T05:47:29;21.80;99.90
16532;DHT22;8378;57.698;11.958;2022-08-06T05:50:13;21.80;99.90
16532;DHT22;8378;57.698;11.958;2022-08-06T05:52:50;21.80;99.90
16532;DHT22;8378;57.698;11.958;2022-08-06T05:58:02;21.90;99.90
16532;DHT22;8378;57.698;11.958;2022-08-06T06:00:31;21.90;99.90
16532;DHT22;8378;57.698;11.958;2022-08-06T06:02:58;21.90;99.90
16532;DHT22;8378;57.698;11.958;2022-08-06T06:05:25;21.90;99.90
16532;DHT22;8378;57.698;11.958;2022-08-06T06:07:51;21.90;99.90
16532;DHT22;8378;57.698;11.958;2022-08-06T06:10:18;21.90;99.90
16532;DHT22;8378;57.698;11.958;2022-08-06T06:12:45;21.90;99.90
16532;DHT22;8378;57.698;11.958;2022-08-06T06:15:12;21.90;99.90
16532;DHT22;8378;57.698;11.958;2022-08-06T06:18:01;21.90;99.90
16532;DHT22;8378;57.698;11.958;2022-08-06T06:20:49;21.90;99.90
16532;DHT22;8378;57.698;11.958;2022-08-06T06:29:02;21.90;99.90
16532;DHT22;8378;57.698;11.958;2022-08-06T06:31:58;21.90;99.90
16532;DHT22;8378;57.698;11.958;2022-08-06T06:37:37;21.90;99.90
16532;DHT22;8378;57.698;11.958;2022-08-06T06:43:09;21.90;99.90
16532;DHT22;8378;57.698;11.958;2022-08-06T06:51:10;21.90;99.90
16532;DHT22;8378;57.698;11.958;2022-08-06T06:53:43;22.00;99.90
16532;DHT22;8378;57.698;11.958;2022-08-06T06:56:11;22.00;99.90
16532;DHT22;8378;57.698;11.958;2022-08-06T06:58:47;22.00;99.90
16532;DHT22;8378;57.698;11.958;2022-08-06T07:01:16;22.00;99.90
16532;DHT22;8378;57.698;11.958;2022-08-06T07:03:45;22.00;99.90
16532;DHT22;8378;57.698;11.958;2022-08-06T07:06:11;22.00;99.90
16532;DHT22;8378;57.698;11.958;2022-08-06T07:08:43;22.10;99.90
16532;DHT22;8378;57.698;11.958;2022-08-06T07:11:18;22.10;99.90
16532;DHT22;8378;57.698;11.958;2022-08-06T07:13:45;22.10;99.90
16532;DHT22;8378;57.698;11.958;2022-08-06T07:16:13;22.20;99.90
16532;DHT22;8378;57.698;11.958;2022-08-06T07:18:41;22.30;99.90
16532;DHT22;8378;57.698;11.958;2022-08-06T07:21:10;22.30;99.90
16532;DHT22;8378;57.698;11.958;2022-08-06T07:23:38;22.30;99.90
16532;DHT22;8378;57.698;11.958;2022-08-06T07:26:04;22.40;99.90
16532;DHT22;8378;57.698;11.958;2022-08-06T07:28:31;22.40;99.90
16532;DHT22;8378;57.698;11.958;2022-08-06T07:30:59;22.40;99.90
16532;DHT22;8378;57.698;11.958;2022-08-06T07:33:26;22.50;99.90
16532;DHT22;8378;57.698;11.958;2022-08-06T07:35:52;22.50;99.90
16532;DHT22;8378;57.698;11.958;2022-08-06T07:38:21;22.50;99.90
16532;DHT22;8378;57.698;11.958;2022-08-06T07:40:54;22.50;99.90
16532;DHT22;8378;57.698;11.958;2022-08-06T07:43:33;22.50;99.90
16532;DHT22;8378;57.698;11.958;2022-08-06T07:46:07;22.50;99.90
16532;DHT22;8378;57.698;11.958;2022-08-06T07:48:40;22.50;99.90
16532;DHT22;8378;57.698;11.958;2022-08-06T07:51:09;22.50;99.90
16532;DHT22;8378;57.698;11.958;2022-08-06T07:53:37;22.60;99.90
16532;DHT22;8378;57.698;11.958;2022-08-06T07:56:05;22.50;99.90
16532;DHT22;8378;57.698;11.958;2022-08-06T07:58:33;22.60;99.90
16532;DHT22;8378;57.698;11.958;2022-08-06T08:01:00;22.60;99.90
16532;DHT22;8378;57.698;11.958;2022-08-06T08:03:27;22.60;99.90
16532;DHT22;8378;57.698;11.958;2022-08-06T08:06:13;22.60;99.90
16532;DHT22;8378;57.698;11.958;2022-08-06T08:09:06;22.60;99.90
16532;DHT22;8378;57.698;11.958;2022-08-06T08:11:34;22.60;99.90
16532;DHT22;8378;57.698;11.958;2022-08-06T08:14:07;22.70;99.90
16532;DHT22;8378;57.698;11.958;2022-08-06T08:16:33;22.70;99.90
16532;DHT22;8378;57.698;11.958;2022-08-06T08:18:59;22.80;99.90
16532;DHT22;8378;57.698;11.958;2022-08-06T08:21:25;22.80;99.90
16532;DHT22;8378;57.698;11.958;2022-08-06T08:23:52;22.80;99.90
16532;DHT22;8378;57.698;11.958;2022-08-06T08:26:18;22.90;99.90
16532;DHT22;8378;57.698;11.958;2022-08-06T08:28:44;22.90;99.90
16532;DHT22;8378;57.698;11.958;2022-08-06T08:31:11;22.90;99.90
16532;DHT22;8378;57.698;11.958;2022-08-06T08:33:38;23.00;99.90
16532;DHT22;8378;57.698;11.958;2022-08-06T08:36:05;23.00;99.90
16532;DHT22;8378;57.698;11.958;2022-08-06T08:38:33;23.00;99.90
16532;DHT22;8378;57.698;11.958;2022-08-06T08:41:21;23.10;99.90
16532;DHT22;8378;57.698;11.958;2022-08-06T08:43:52;23.10;99.90
16532;DHT22;8378;57.698;11.958;2022-08-06T08:46:21;23.20;99.90
16532;DHT22;8378;57.698;11.958;2022-08-06T08:48:47;23.20;99.90
16532;DHT22;8378;57.698;11.958;2022-08-06T08:51:14;23.30;99.90
16532;DHT22;8378;57.698;11.958;2022-08-06T08:53:47;23.30;99.90
16532;DHT22;8378;57.698;11.958;2022-08-06T08:56:13;23.30;99.90
16532;DHT22;8378;57.698;11.958;2022-08-06T08:58:40;23.40;99.90
16532;DHT22;8378;57.698;11.958;2022-08-06T09:01:07;23.40;99.90
16532;DHT22;8378;57.698;11.958;2022-08-06T09:03:36;23.50;99.90
16532;DHT22;8378;57.698;11.958;2022-08-06T09:06:03;23.50;99.90
16532;DHT22;8378;57.698;11.958;2022-08-06T09:08:30;23.50;99.90
16532;DHT22;8378;57.698;11.958;2022-08-06T09:10:56;23.60;99.90
16532;DHT22;8378;57.698;11.958;2022-08-06T09:13:26;23.60;99.90
16532;DHT22;8378;57.698;11.958;2022-08-06T09:15:53;23.60;99.90
16532;DHT22;8378;57.698;11.958;2022-08-06T09:18:23;23.70;99.90
16532;DHT22;8378;57.698;11.958;2022-08-06T09:20:49;23.70;99.90
16532;DHT22;8378;57.698;11.958;2022-08-06T09:23:16;23.70;99.90
16532;DHT22;8378;57.698;11.958;2022-08-06T09:25:50;23.70;99.90
16532;DHT22;8378;57.698;11.958;2022-08-06T09:28:37;23.70;99.90
16532;DHT22;8378;57.698;11.958;2022-08-06T09:31:17;23.80;99.90
16532;DHT22;8378;57.698;11.958;2022-08-06T09:34:04;23.80;99.90
16532;DHT22;8378;57.698;11.958;2022-08-06T09:36:43;23.80;99.90
16532;DHT22;8378;57.698;11.958;2022-08-06T09:39:10;23.80;99.90
16532;DHT22;8378;57.698;11.958;2022-08-06T09:41:49;23.90;99.90
16532;DHT22;8378;57.698;11.958;2022-08-06T09:44:14;23.80;99.90
16532;DHT22;8378;57.698;11.958;2022-08-06T09:46:45;23.90;99.90
16532;DHT22;8378;57.698;11.958;2022-08-06T09:49:12;23.90;99.90
16532;DHT22;8378;57.698;11.958;2022-08-06T09:51:39;23.90;99.90
16532;DHT22;8378;57.698;11.958;2022-08-06T09:54:08;23.90;99.90
16532;DHT22;8378;57.698;11.958;2022-08-06T09:56:45;23.90;99.90
16532;DHT22;8378;57.698;11.958;2022-08-06T09:59:12;23.90;99.90
16532;DHT22;8378;57.698;11.958;2022-08-06T10:01:40;23.90;99.90
16532;DHT22;8378;57.698;11.958;2022-08-06T10:04:06;23.90;99.90
16532;DHT22;8378;57.698;11.958;2022-08-06T10:06:32;23.90;99.90
16532;DHT22;8378;57.698;11.958;2022-08-06T10:09:11;23.90;99.90
16532;DHT22;8378;57.698;11.958;2022-08-06T10:11:41;23.90;99.90
16532;DHT22;8378;57.698;11.958;2022-08-06T10:14:27;23.90;99.90
16532;DHT22;8378;57.698;11.958;2022-08-06T10:17:11;24.00;99.90
16532;DHT22;8378;57.698;11.958;2022-08-06T10:19:40;24.00;99.90
16532;DHT22;8378;57.698;11.958;2022-08-06T10:22:11;24.00;99.90
16532;DHT22;8378;57.698;11.958;2022-08-06T10:24:49;24.00;99.90
16532;DHT22;8378;57.698;11.958;2022-08-06T10:27:19;24.00;99.90
16532;DHT22;8378;57.698;11.958;2022-08-06T10:29:50;24.00;99.90
16532;DHT22;8378;57.698;11.958;2022-08-06T10:32:27;24.00;99.90
16532;DHT22;8378;57.698;11.958;2022-08-06T10:34:56;24.00;99.90
16532;DHT22;8378;57.698;11.958;2022-08-06T10:37:22;24.00;99.90
16532;DHT22;8378;57.698;11.958;2022-08-06T10:39:54;24.00;99.90
16532;DHT22;8378;57.698;11.958;2022-08-06T10:42:21;24.00;99.90
16532;DHT22;8378;57.698;11.958;2022-08-06T10:44:49;24.10;99.90
16532;DHT22;8378;57.698;11.958;2022-08-06T10:47:16;24.10;99.90
16532;DHT22;8378;57.698;11.958;2022-08-06T10:49:42;24.10;99.90
16532;DHT22;8378;57.698;11.958;2022-08-06T10:52:10;24.10;99.90
16532;DHT22;8378;57.698;11.958;2022-08-06T10:54:37;24.10;99.90
16532;DHT22;8378;57.698;11.958;2022-08-06T10:57:02;24.10;99.90
16532;DHT22;8378;57.698;11.958;2022-08-06T10:59:28;24.20;99.90
16532;DHT22;8378;57.698;11.958;2022-08-06T11:04:58;24.30;99.90
16532;DHT22;8378;57.698;11.958;2022-08-06T11:10:17;24.30;99.90
16532;DHT22;8378;57.698;11.958;2022-08-06T11:15:35;24.30;99.90
16532;DHT22;8378;57.698;11.958;2022-08-06T11:18:05;24.30;99.90
16532;DHT22;8378;57.698;11.958;2022-08-06T11:22:58;24.40;99.90
16532;DHT22;8378;57.698;11.958;2022-08-06T11:25:57;24.40;99.90
16532;DHT22;8378;57.698;11.958;2022-08-06T11:30:57;24.40;99.90
16532;DHT22;8378;57.698;11.958;2022-08-06T11:35:58;24.40;99.90
16532;DHT22;8378;57.698;11.958;2022-08-06T11:41:10;24.50;99.90
16532;DHT22;8378;57.698;11.958;2022-08-06T11:44:03;24.50;99.90
16532;DHT22;8378;57.698;11.958;2022-08-06T11:46:35;24.50;99.90
16532;DHT22;8378;57.698;11.958;2022-08-06T11:51:45;24.50;99.90
16532;DHT22;8378;57.698;11.958;2022-08-06T11:54:14;24.50;99.90
16532;DHT22;8378;57.698;11.958;2022-08-06T11:59:25;24.50;99.90
16532;DHT22;8378;57.698;11.958;2022-08-06T12:01:51;24.50;99.90
16532;DHT22;8378;57.698;11.958;2022-08-06T12:12:45;24.60;99.90
16532;DHT22;8378;57.698;11.958;2022-08-06T12:20:36;24.70;99.90
16532;DHT22;8378;57.698;11.958;2022-08-06T12:23:09;24.70;99.90
16532;DHT22;8378;57.698;11.958;2022-08-06T12:25:37;24.70;99.90
16532;DHT22;8378;57.698;11.958;2022-08-06T12:28:04;24.80;99.90
16532;DHT22;8378;57.698;11.958;2022-08-06T12:30:49;24.80;99.90
16532;DHT22;8378;57.698;11.958;2022-08-06T12:33:15;24.80;99.90
16532;DHT22;8378;57.698;11.958;2022-08-06T12:38:18;24.90;99.90
16532;DHT22;8378;57.698;11.958;2022-08-06T12:41:01;24.90;99.90
16532;DHT22;8378;57.698;11.958;2022-08-06T12:43:29;24.90;99.90
16532;DHT22;8378;57.698;11.958;2022-08-06T12:46:00;24.90;99.90
16532;DHT22;8378;57.698;11.958;2022-08-06T12:48:26;24.90;99.90
16532;DHT22;8378;57.698;11.958;2022-08-06T12:51:09;24.90;99.90
16532;DHT22;8378;57.698;11.958;2022-08-06T12:53:52;24.80;99.90
16532;DHT22;8378;57.698;11.958;2022-08-06T12:56:22;24.90;99.90
16532;DHT22;8378;57.698;11.958;2022-08-06T12:58:50;24.90;99.90
16532;DHT22;8378;57.698;11.958;2022-08-06T13:01:18;24.90;99.90
16532;DHT22;8378;57.698;11.958;2022-08-06T13:03:46;24.90;99.90
16532;DHT22;8378;57.698;11.958;2022-08-06T13:06:18;24.90;99.90
16532;DHT22;8378;57.698;11.958;2022-08-06T13:08:46;24.90;99.90
16532;DHT22;8378;57.698;11.958;2022-08-06T13:11:13;24.90;99.90
16532;DHT22;8378;57.698;11.958;2022-08-06T13:13:47;24.90;99.90
16532;DHT22;8378;57.698;11.958;2022-08-06T13:16:15;25.00;99.90
16532;DHT22;8378;57.698;11.958;2022-08-06T13:18:43;25.00;99.90
16532;DHT22;8378;57.698;11.958;2022-08-06T13:21:27;25.00;99.90
16532;DHT22;8378;57.698;11.958;2022-08-06T13:23:53;25.00;99.90
16532;DHT22;8378;57.698;11.958;2022-08-06T13:26:21;25.00;99.90
16532;DHT22;8378;57.698;11.958;2022-08-06T13:29:13;25.00;99.90
16532;DHT22;8378;57.698;11.958;2022-08-06T13:31:43;25.00;99.90
16532;DHT22;8378;57.698;11.958;2022-08-06T13:34:14;25.10;99.90
16532;DHT22;8378;57.698;11.958;2022-08-06T13:36:42;25.00;99.90
16532;DHT22;8378;57.698;11.958;2022-08-06T13:39:26;25.10;99.90
16532;DHT22;8378;57.698;11.958;2022-08-06T13:42:11;25.10;99.90
16532;DHT22;8378;57.698;11.958;2022-08-06T13:44:41;25.10;99.90
16532;DHT22;8378;57.698;11.958;2022-08-06T13:47:09;25.10;99.90
16532;DHT22;8378;57.698;11.958;2022-08-06T13:49:37;25.10;99.90
16532;DHT22;8378;57.698;11.958;2022-08-06T13:52:03;25.10;99.90
16532;DHT22;8378;57.698;11.958;2022-08-06T13:54:29;25.10;99.90
16532;DHT22;8378;57.698;11.958;2022-08-06T13:56:56;25.10;99.90
16532;DHT22;8378;57.698;11.958;2022-08-06T13:59:25;25.10;99.90
16532;DHT22;8378;57.698;11.958;2022-08-06T14:01:51;25.10;99.90
16532;DHT22;8378;57.698;11.958;2022-08-06T14:04:19;25.10;99.90
16532;DHT22;8378;57.698;11.958;2022-08-06T14:06:48;25.10;99.90
16532;DHT22;8378;57.698;11.958;2022-08-06T14:09:15;25.10;99.90
16532;DHT22;8378;57.698;11.958;2022-08-06T14:11:41;25.10;99.90
16532;DHT22;8378;57.698;11.958;2022-08-06T14:14:07;25.10;99.90
16532;DHT22;8378;57.698;11.958;2022-08-06T14:16:33;25.10;99.90
16532;DHT22;8378;57.698;11.958;2022-08-06T14:18:59;25.10;99.90
16532;DHT22;8378;57.698;11.958;2022-08-06T14:21:24;25.10;99.90
16532;DHT22;8378;57.698;11.958;2022-08-06T14:23:51;25.10;99.90
16532;DHT22;8378;57.698;11.958;2022-08-06T14:26:16;25.10;99.90
16532;DHT22;8378;57.698;11.958;2022-08-06T14:28:42;25.10;99.90
16532;DHT22;8378;57.698;11.958;2022-08-06T14:31:08;25.10;99.90
16532;DHT22;8378;57.698;11.958;2022-08-06T14:33:34;25.10;99.90
16532;DHT22;8378;57.698;11.958;2022-08-06T14:36:00;25.10;99.90
16532;DHT22;8378;57.698;11.958;2022-08-06T14:38:25;25.10;99.90
16532;DHT22;8378;57.698;11.958;2022-08-06T14:40:51;25.10;99.90
16532;DHT22;8378;57.698;11.958;2022-08-06T14:43:35;25.10;99.90
16532;DHT22;8378;57.698;11.958;2022-08-06T14:46:19;25.10;99.90
16532;DHT22;8378;57.698;11.958;2022-08-06T14:48:45;25.10;99.90
16532;DHT22;8378;57.698;11.958;2022-08-06T14:51:11;25.20;99.90
16532;DHT22;8378;57.698;11.958;2022-08-06T14:53:36;25.10;99.90
16532;DHT22;8378;57.698;11.958;2022-08-06T14:56:02;25.10;99.90
16532;DHT22;8378;57.698;11.958;2022-08-06T14:58:28;25.10;99.90
16532;DHT22;8378;57.698;11.958;2022-08-06T15:00:54;25.10;99.90
16532;DHT22;8378;57.698;11.958;2022-08-06T15:03:19;25.10;99.90
16532;DHT22;8378;57.698;11.958;2022-08-06T15:05:45;25.10;99.90
16532;DHT22;8378;57.698;11.958;2022-08-06T15:08:11;25.10;99.90
16532;DHT22;8378;57.698;11.958;2022-08-06T15:10:37;25.10;99.90
16532;DHT22;8378;57.698;11.958;2022-08-06T15:13:04;25.10;99.90
16532;DHT22;8378;57.698;11.958;2022-08-06T15:15:31;25.10;99.90
16532;DHT22;8378;57.698;11.958;2022-08-06T15:17:56;25.10;99.90
16532;DHT22;8378;57.698;11.958;2022-08-06T15:20:22;25.10;99.90
16532;DHT22;8378;57.698;11.958;2022-08-06T15:22:47;25.10;99.90
16532;DHT22;8378;57.698;11.958;2022-08-06T15:25:13;25.10;99.90
16532;DHT22;8378;57.698;11.958;2022-08-06T15:27:45;25.10;99.90
16532;DHT22;8378;57.698;11.958;2022-08-06T15:30:12;25.20;99.90
16532;DHT22;8378;57.698;11.958;2022-08-06T15:32:38;25.10;99.90
16532;DHT22;8378;57.698;11.958;2022-08-06T15:35:04;25.10;99.90
16532;DHT22;8378;57.698;11.958;2022-08-06T15:37:30;25.10;99.90
16532;DHT22;8378;57.698;11.958;2022-08-06T15:39:56;25.10;99.90
16532;DHT22;8378;57.698;11.958;2022-08-06T15:42:23;25.20;99.90
16532;DHT22;8378;57.698;11.958;2022-08-06T15:44:49;25.20;99.90
16532;DHT22;8378;57.698;11.958;2022-08-06T15:47:15;25.20;99.90
16532;DHT22;8378;57.698;11.958;2022-08-06T15:49:41;25.20;99.90
16532;DHT22;8378;57.698;11.958;2022-08-06T15:52:07;25.20;99.90
16532;DHT22;8378;57.698;11.958;2022-08-06T15:54:34;25.20;99.90
16532;DHT22;8378;57.698;11.958;2022-08-06T15:57:00;25.20;99.90
16532;DHT22;8378;57.698;11.958;2022-08-06T15:59:26;25.20;99.90
16532;DHT22;8378;57.698;11.958;2022-08-06T16:01:52;25.20;99.90
16532;DHT22;8378;57.698;11.958;2022-08-06T16:04:17;25.20;99.90
16532;DHT22;8378;57.698;11.958;2022-08-06T16:06:43;25.20;99.90
16532;DHT22;8378;57.698;11.958;2022-08-06T16:09:09;25.20;99.90
16532;DHT22;8378;57.698;11.958;2022-08-06T16:11:34;25.30;99.90
16532;DHT22;8378;57.698;11.958;2022-08-06T16:14:00;25.30;99.90
16532;DHT22;8378;57.698;11.958;2022-08-06T16:16:25;25.30;99.90
16532;DHT22;8378;57.698;11.958;2022-08-06T16:18:51;25.30;99.90
16532;DHT22;8378;57.698;11.958;2022-08-06T16:21:16;25.30;99.90
16532;DHT22;8378;57.698;11.958;2022-08-06T16:23:42;25.30;99.90
16532;DHT22;8378;57.698;11.958;2022-08-06T16:26:08;25.30;99.90
16532;DHT22;8378;57.698;11.958;2022-08-06T16:28:33;25.30;99.90
16532;DHT22;8378;57.698;11.958;2022-08-06T16:30:59;25.30;99.90
16532;DHT22;8378;57.698;11.958;2022-08-06T16:33:26;25.30;99.90
16532;DHT22;8378;57.698;11.958;2022-08-06T16:35:52;25.30;99.90
16532;DHT22;8378;57.698;11.958;2022-08-06T16:38:18;25.30;99.90
16532;DHT22;8378;57.698;11.958;2022-08-06T16:40:43;25.30;99.90
16532;DHT22;8378;57.698;11.958;2022-08-06T16:43:09;25.30;99.90
16532;DHT22;8378;57.698;11.958;2022-08-06T16:45:35;25.30;99.90
16532;DHT22;8378;57.698;11.958;2022-08-06T16:48:01;25.30;99.90
16532;DHT22;8378;57.698;11.958;2022-08-06T16:50:26;25.30;99.90
16532;DHT22;8378;57.698;11.958;2022-08-06T16:52:52;25.30;99.90
16532;DHT22;8378;57.698;11.958;2022-08-06T16:55:18;25.30;99.90